Time;durP1;ratioP1;P1;durP2;ratioP2;P2;SDS_P1;SDS_P2;PMS_P1;PMS_P2;Temp;Humidity;BMP_temperature;BMP_pressure;BME280_temperature;BME280_humidity;BME280_pressure;Samples;Min_cycle;Max_cycle;Signal;HPM_P1;HPM_P2
2023/11/12 00:00:50;;;;;;;12.05;9.93;;;26.80;99.90;;;;;;5054865;28;20024;-47
2023/11/12 00:03:16;;;;;;;12.45;9.88;;;26.80;99.90;;;;;;5052069;28;20029;-47
2023/11/12 00:05:42;;;;;;;12.60;10.15;;;26.80;99.90;;;;;;5051277;28;20074;-50
2023/11/12 00:08:07;;;;;;;12.05;9.55;;;26.90;99.90;;;;;;5052191;28;20041;-47
2023/11/12 00:10:34;;;;;;;14.10;10.15;;;26.90;99.90;;;;;;5046570;28;20024;-52
2023/11/12 00:13:00;;;;;;;11.20;9.85;;;26.80;99.90;;;;;;5057615;28;20021;-46
2023/11/12 00:15:26;;;;;;;13.82;10.40;;;26.90;99.90;;;;;;5056648;28;20025;-47
2023/11/12 00:17:51;;;;;;;14.75;10.55;;;26.90;99.90;;;;;;5051868;28;20290;-49
2023/11/12 00:20:17;;;;;;;11.30;10.00;;;26.90;99.90;;;;;;5052531;28;20100;-46
2023/11/12 00:22:43;;;;;;;13.48;10.45;;;26.80;99.90;;;;;;5053065;28;20013;-46
2023/11/12 00:25:10;;;;;;;12.05;10.35;;;26.80;99.90;;;;;;5053406;28;20021;-46
2023/11/12 00:27:36;;;;;;;13.63;10.65;;;26.80;99.90;;;;;;5053298;28;20025;-49
2023/11/12 00:30:03;;;;;;;13.77;11.27;;;26.80;99.90;;;;;;5052802;28;20028;-48
2023/11/12 00:32:29;;;;;;;15.77;11.90;;;26.80;99.90;;;;;;5052901;28;20032;-46
2023/11/12 00:34:55;;;;;;;12.98;11.60;;;26.80;99.90;;;;;;5052672;28;20035;-50
2023/11/12 00:37:20;;;;;;;18.63;12.00;;;26.80;99.90;;;;;;5052847;28;20394;-50
2023/11/12 00:39:46;;;;;;;15.63;12.13;;;26.80;99.90;;;;;;5052707;28;20537;-52
2023/11/12 00:42:12;;;;;;;14.85;12.00;;;26.70;99.90;;;;;;5052634;28;20112;-48
2023/11/12 00:44:40;;;;;;;15.05;12.02;;;26.70;99.90;;;;;;5052843;28;20501;-48
2023/11/12 00:47:05;;;;;;;15.55;11.93;;;26.70;99.90;;;;;;5043569;28;20498;-47
2023/11/12 00:49:31;;;;;;;16.75;12.15;;;26.80;99.90;;;;;;5046290;28;20128;-48
2023/11/12 00:51:57;;;;;;;15.63;12.50;;;26.80;99.90;;;;;;5051854;28;20092;-46
2023/11/12 00:54:22;;;;;;;16.52;12.75;;;26.80;99.90;;;;;;5066449;28;20029;-50
2023/11/12 00:56:48;;;;;;;17.95;13.82;;;26.70;99.90;;;;;;5063153;28;20032;-48
2023/11/12 00:59:13;;;;;;;18.52;12.80;;;26.70;99.90;;;;;;5056019;28;20017;-49
2023/11/12 01:01:39;;;;;;;16.58;13.68;;;26.70;99.90;;;;;;5057226;28;20493;-48
2023/11/12 01:04:05;;;;;;;16.50;12.68;;;26.70;99.90;;;;;;5056665;28;20033;-49
2023/11/12 01:06:31;;;;;;;18.67;14.27;;;26.80;99.90;;;;;;5047733;28;20029;-49
2023/11/12 01:08:56;;;;;;;15.73;12.93;;;26.70;99.90;;;;;;5052224;28;20033;-48
2023/11/12 01:11:22;;;;;;;17.75;13.50;;;26.60;99.90;;;;;;5055241;28;20099;-51
2023/11/12 01:13:48;;;;;;;18.25;14.35;;;26.60;99.90;;;;;;5055182;28;20049;-49
2023/11/12 01:16:15;;;;;;;19.83;15.25;;;26.60;99.90;;;;;;5052256;28;20454;-48
2023/11/12 01:18:45;;;;;;;24.73;17.10;;;26.60;99.90;;;;;;5047954;28;20036;-48
2023/11/12 01:21:11;;;;;;;24.55;18.77;;;26.70;99.90;;;;;;5051926;28;20104;-46
2023/11/12 01:23:37;;;;;;;23.25;17.75;;;26.60;99.90;;;;;;5052149;28;20100;-47
2023/11/12 01:26:03;;;;;;;24.65;18.13;;;26.60;99.90;;;;;;5052100;28;20048;-47
2023/11/12 01:28:34;;;;;;;24.45;18.55;;;26.60;99.90;;;;;;5051987;28;20091;-47
2023/11/12 01:31:00;;;;;;;23.75;18.70;;;26.60;99.90;;;;;;5051974;28;20072;-49
2023/11/12 01:33:27;;;;;;;21.35;18.15;;;26.60;99.90;;;;;;5049487;28;20022;-47
2023/11/12 01:35:54;;;;;;;23.95;18.02;;;26.60;99.90;;;;;;5043685;28;20458;-47
2023/11/12 01:38:20;;;;;;;26.77;18.35;;;26.60;99.90;;;;;;5051581;28;20099;-48
2023/11/12 01:40:46;;;;;;;25.40;18.90;;;;;;;;;;5051635;28;20474;-52
2023/11/12 01:43:12;;;;;;;21.27;16.95;;;;;;;;;;5051615;28;20043;-46
2023/11/12 01:45:38;;;;;;;22.67;18.25;;;;;;;;;;5051682;28;20064;-46
2023/11/12 01:48:05;;;;;;;24.83;19.30;;;;;;;;;;5051615;28;20060;-46
2023/11/12 01:50:31;;;;;;;24.48;19.08;;;;;;;;;;5053570;28;20536;-47
2023/11/12 01:52:57;;;;;;;24.60;18.67;;;;;;;;;;5052585;28;20061;-49
2023/11/12 01:55:23;;;;;;;29.05;19.15;;;;;;;;;;5060791;28;20160;-50
2023/11/12 01:57:50;;;;;;;25.05;19.40;;;;;;;;;;5053606;28;20025;-49
2023/11/12 02:00:16;;;;;;;23.75;18.95;;;;;;;;;;5053336;28;20028;-47
2023/11/12 02:02:43;;;;;;;29.20;19.90;;;;;;;;;;5053411;28;20104;-49
2023/11/12 02:05:09;;;;;;;23.77;18.48;;;;;;;;;;5049704;28;20036;-48
2023/11/12 02:07:42;;;;;;;25.02;19.40;;;;;;;;;;5037735;28;20143;-47
2023/11/12 02:10:12;;;;;;;25.85;19.88;;;;;;;;;;5040457;28;20180;-46
2023/11/12 02:12:38;;;;;;;26.40;20.15;;;;;;;;;;5051356;28;20103;-47
2023/11/12 02:15:06;;;;;;;24.70;20.23;;;;;;;;;;5043701;28;20075;-47
2023/11/12 02:17:32;;;;;;;28.73;20.67;;;;;;;;;;5052585;28;20041;-46
2023/11/12 02:20:08;;;;;;;26.98;20.80;;;;;;;;;;5035485;28;20111;-51
2023/11/12 02:22:35;;;;;;;28.33;22.27;;;;;;;;;;5044304;28;20471;-50
2023/11/12 02:25:01;;;;;;;31.35;23.20;;;;;;;;;;5050508;28;20382;-51
2023/11/12 02:27:27;;;;;;;29.50;23.02;;;;;;;;;;5050450;28;20028;-47
2023/11/12 02:29:53;;;;;;;32.35;23.20;;;;;;;;;;5050485;28;20060;-49
2023/11/12 02:32:20;;;;;;;28.48;22.10;;;;;;;;;;5050463;28;20522;-50
2023/11/12 02:34:46;;;;;;;31.98;23.77;;;;;;;;;;5050267;28;20029;-46
2023/11/12 02:37:13;;;;;;;33.85;24.27;;;;;;;;;;5042782;28;20025;-50
2023/11/12 02:39:41;;;;;;;31.77;23.23;;;;;;;;;;5053867;28;20021;-46
2023/11/12 02:42:08;;;;;;;28.52;23.60;;;;;;;;;;5054037;28;20128;-46
2023/11/12 02:44:36;;;;;;;33.25;24.98;;;;;;;;;;5053167;28;20031;-48
2023/11/12 02:47:04;;;;;;;31.27;24.15;;;;;;;;;;5053974;28;20043;-47
2023/11/12 02:49:39;;;;;;;33.35;24.42;;;;;;;;;;5054184;28;20033;-48
2023/11/12 02:52:06;;;;;;;31.10;24.27;;;;;;;;;;5054139;28;20067;-47
2023/11/12 02:54:34;;;;;;;34.35;24.75;;;;;;;;;;5055678;28;20025;-47
2023/11/12 02:57:00;;;;;;;33.83;24.77;;;;;;;;;;5056124;28;20057;-49
2023/11/12 02:59:27;;;;;;;32.33;25.25;;;;;;;;;;5055256;28;20032;-48
2023/11/12 03:01:53;;;;;;;31.95;24.35;;;;;;;;;;5059287;28;20157;-52
2023/11/12 03:04:19;;;;;;;32.15;25.20;;;;;;;;;;5067649;28;20099;-49
2023/11/12 03:06:48;;;;;;;35.05;25.17;;;;;;;;;;5061055;28;20481;-51
2023/11/12 03:09:14;;;;;;;30.35;24.00;;;;;;;;;;5057873;28;20077;-53
2023/11/12 03:11:40;;;;;;;32.92;24.83;;;;;;;;;;5046786;28;20029;-51
2023/11/12 03:14:08;;;;;;;33.97;25.83;;;;;;;;;;5052550;28;20461;-50
2023/11/12 03:16:34;;;;;;;31.90;24.25;;;;;;;;;;5052545;28;20115;-52
2023/11/12 03:19:00;;;;;;;33.65;24.25;;;;;;;;;;5047639;28;20064;-53
2023/11/12 03:21:26;;;;;;;31.23;23.63;;;;;;;;;;5052304;28;20075;-50
2023/11/12 03:23:52;;;;;;;32.33;24.10;;;;;;;;;;5053663;28;20107;-49
2023/11/12 03:26:19;;;;;;;30.98;23.95;;;;;;;;;;5061468;28;20130;-47
2023/11/12 03:28:45;;;;;;;30.02;23.40;;;;;;;;;;5061231;28;20036;-49
2023/11/12 03:31:11;;;;;;;28.70;22.40;;;;;;;;;;5058404;28;20486;-46
2023/11/12 03:33:37;;;;;;;30.05;21.85;;;;;;;;;;5057026;28;20438;-48
2023/11/12 03:36:04;;;;;;;29.95;21.77;;;;;;;;;;5060203;28;20021;-49
2023/11/12 03:38:33;;;;;;;32.40;21.98;;;;;;;;;;5060213;28;20043;-46
2023/11/12 03:40:59;;;;;;;27.10;21.92;;;;;;;;;;5057652;28;20021;-49
2023/11/12 03:43:25;;;;;;;26.27;20.35;;;;;;;;;;5055324;28;20176;-48
2023/11/12 03:45:51;;;;;;;27.60;21.08;;;;;;;;;;5057301;28;20018;-53
2023/11/12 03:48:17;;;;;;;28.88;22.05;;;;;;;;;;5051800;28;20111;-49
2023/11/12 03:50:43;;;;;;;27.77;20.00;;;;;;;;;;5057448;28;20021;-48
2023/11/12 03:53:09;;;;;;;24.15;18.65;;;;;;;;;;5042615;28;20075;-49
2023/11/12 03:55:35;;;;;;;23.85;18.67;;;;;;;;;;5052990;28;20360;-51
2023/11/12 03:58:01;;;;;;;23.30;18.05;;;;;;;;;;5046197;28;20025;-49
2023/11/12 04:00:28;;;;;;;25.05;17.52;;;;;;;;;;5053635;28;20059;-50
2023/11/12 04:02:54;;;;;;;24.15;16.95;;;;;;;;;;5053456;28;20021;-50
2023/11/12 04:05:20;;;;;;;24.52;17.88;;;;;;;;;;5059428;28;20440;-49
2023/11/12 04:07:46;;;;;;;23.15;17.98;;;;;;;;;;5056055;28;20371;-52
2023/11/12 04:10:13;;;;;;;26.48;17.63;;;;;;;;;;5065280;28;20036;-48
2023/11/12 04:12:39;;;;;;;22.02;16.65;;;;;;;;;;5052897;28;20342;-49
2023/11/12 04:15:05;;;;;;;24.17;17.13;;;;;;;;;;5057108;28;20032;-49
2023/11/12 04:17:31;;;;;;;23.00;16.60;;;;;;;;;;5057193;28;20033;-47
2023/11/12 04:19:57;;;;;;;24.42;17.23;;;;;;;;;;5057274;28;20025;-49
2023/11/12 04:22:24;;;;;;;26.02;18.02;;;;;;;;;;5060055;28;20100;-50
2023/11/12 04:24:53;;;;;;;26.05;18.60;;;;;;;;;;5045511;28;20135;-47
2023/11/12 04:27:19;;;;;;;24.80;18.70;;;;;;;;;;5053177;28;20386;-47
2023/11/12 04:29:47;;;;;;;27.77;19.23;;;;;;;;;;5052924;28;20424;-49
2023/11/12 04:32:13;;;;;;;28.15;20.02;;;;;;;;;;5053006;28;20025;-47
2023/11/12 04:34:39;;;;;;;29.05;19.42;;;;;;;;;;5052991;28;20116;-47
2023/11/12 04:37:05;;;;;;;26.65;20.75;;;;;;;;;;5053144;28;20025;-48
2023/11/12 04:39:31;;;;;;;29.17;21.95;;;;;;;;;;5053009;28;20024;-50
2023/11/12 04:41:57;;;;;;;30.02;22.08;;;;;;;;;;5052643;28;20138;-47
2023/11/12 04:44:25;;;;;;;33.35;22.45;;;;;;;;;;5038771;28;20043;-50
2023/11/12 04:46:51;;;;;;;32.63;23.13;;;;;;;;;;5052658;28;20232;-47
2023/11/12 04:49:18;;;;;;;30.95;22.35;;;;;;;;;;5040800;28;20041;-49
2023/11/12 04:51:44;;;;;;;30.25;22.98;;;;;;;;;;5052827;28;20025;-48
2023/11/12 04:54:10;;;;;;;32.45;23.70;;;;;;;;;;5055287;28;20144;-47
2023/11/12 04:56:36;;;;;;;36.33;24.60;;;;;;;;;;5054905;28;20051;-48
2023/11/12 04:59:02;;;;;;;33.80;23.92;;;;;;;;;;5059654;28;20517;-48
2023/11/12 05:01:28;;;;;;;32.67;24.10;;;;;;;;;;5055506;28;20100;-47
2023/11/12 05:03:54;;;;;;;34.83;25.17;;;;;;;;;;5060865;28;20033;-50
2023/11/12 05:06:21;;;;;;;32.03;23.73;;;;;;;;;;5057053;28;20052;-49
2023/11/12 05:08:48;;;;;;;32.97;23.58;;;;;;;;;;5049976;28;20037;-47
2023/11/12 05:11:14;;;;;;;30.88;23.33;;;;;;;;;;5052325;28;20108;-48
2023/11/12 05:13:40;;;;;;;30.48;22.77;;;;;;;;;;5055519;28;20154;-47
2023/11/12 05:16:06;;;;;;;33.08;23.83;;;;;;;;;;5065776;28;20025;-47
2023/11/12 05:18:32;;;;;;;34.15;23.75;;;;;;;;;;5055063;28;20094;-47
2023/11/12 05:20:58;;;;;;;31.25;23.38;;;;;;;;;;5047758;28;20020;-48
2023/11/12 05:23:24;;;;;;;28.20;21.83;;;;;;;;;;5047052;28;20048;-47
2023/11/12 05:25:51;;;;;;;28.30;20.98;;;;;;;;;;5060653;28;20504;-49
2023/11/12 05:28:17;;;;;;;30.48;19.98;;;;;;;;;;5061361;28;20477;-47
2023/11/12 05:30:43;;;;;;;25.20;18.55;;;;;;;;;;5061707;28;20036;-47
2023/11/12 05:33:09;;;;;;;24.20;17.88;;;;;;;;;;5054620;28;20024;-48
2023/11/12 05:35:35;;;;;;;22.40;17.42;;;;;;;;;;5055659;28;20028;-49
2023/11/12 05:38:01;;;;;;;25.27;17.48;;;;;;;;;;5053899;28;20070;-48
2023/11/12 05:40:29;;;;;;;20.08;14.68;;;;;;;;;;5051742;28;20431;-50
2023/11/12 05:42:55;;;;;;;19.83;15.45;;;;;;;;;;5051717;28;20044;-48
2023/11/12 05:45:21;;;;;;;22.27;15.38;;;;;;;;;;5050911;28;20138;-47
2023/11/12 05:47:47;;;;;;;20.33;14.63;;;;;;;;;;5052277;28;20028;-47
2023/11/12 05:50:13;;;;;;;20.23;13.90;;;;;;;;;;5056458;28;20033;-48
2023/11/12 05:52:39;;;;;;;23.20;14.73;;;;;;;;;;5051327;28;20024;-47
2023/11/12 05:55:05;;;;;;;21.23;14.38;;;;;;;;;;5056911;28;20032;-47
2023/11/12 05:57:31;;;;;;;19.65;13.63;;;;;;;;;;5056058;28;20064;-48
2023/11/12 05:59:57;;;;;;;18.00;13.75;;;;;;;;;;5054491;28;20025;-47
2023/11/12 06:02:23;;;;;;;20.02;14.00;;;;;;;;;;5053117;28;20031;-49
2023/11/12 06:04:49;;;;;;;18.52;13.90;;;;;;;;;;5053092;28;20029;-47
2023/11/12 06:07:15;;;;;;;19.20;13.55;;;;;;;;;;5043555;28;20037;-48
2023/11/12 06:09:43;;;;;;;21.30;13.48;;;;;;;;;;5046270;28;20041;-47
2023/11/12 06:12:09;;;;;;;17.83;12.45;;;;;;;;;;5051244;28;20017;-48
2023/11/12 06:14:36;;;;;;;18.67;12.23;;;;;;;;;;5053065;28;20035;-48
2023/11/12 06:17:03;;;;;;;18.27;11.05;;;;;;;;;;5053272;28;20025;-47
2023/11/12 06:19:29;;;;;;;14.45;10.70;;;;;;;;;;5054144;28;20029;-47
2023/11/12 06:21:56;;;;;;;14.60;10.68;;;;;;;;;;5052595;28;20029;-49
2023/11/12 06:24:22;;;;;;;14.85;9.95;;;;;;;;;;5038895;28;20018;-47
2023/11/12 06:26:48;;;;;;;12.80;9.45;;;;;;;;;;5053160;28;20592;-48
2023/11/12 06:29:14;;;;;;;11.98;8.93;;;;;;;;;;5053017;28;20128;-49
2023/11/12 06:31:40;;;;;;;13.15;8.75;;;;;;;;;;5055143;28;20034;-47
2023/11/12 06:34:06;;;;;;;13.13;8.63;;;;;;;;;;5038528;28;20469;-48
2023/11/12 06:36:32;;;;;;;14.25;9.32;;;;;;;;;;5047858;28;20112;-51
2023/11/12 06:38:58;;;;;;;12.13;8.95;;;;;;;;;;5055000;28;20443;-48
2023/11/12 06:41:24;;;;;;;15.43;9.65;;;;;;;;;;5054942;28;20041;-47
2023/11/12 06:43:50;;;;;;;14.48;9.98;;;;;;;;;;5054990;28;20029;-47
2023/11/12 06:46:16;;;;;;;17.13;10.35;;;;;;;;;;5054803;28;20104;-47
2023/11/12 06:48:42;;;;;;;12.90;9.13;;;;;;;;;;5054858;28;20048;-47
2023/11/12 06:51:08;;;;;;;14.05;9.57;;;;;;;;;;5054910;28;20103;-47
2023/11/12 06:53:34;;;;;;;12.80;9.95;;;;;;;;;;5055016;28;20086;-47
2023/11/12 06:56:00;;;;;;;15.27;10.70;;;;;;;;;;5063659;28;20036;-48
2023/11/12 06:58:26;;;;;;;14.35;10.57;;;;;;;;;;5061711;28;20042;-48
2023/11/12 07:00:52;;;;;;;12.00;9.13;;;;;;;;;;5057140;28;20036;-47
2023/11/12 07:03:18;;;;;;;12.57;9.63;;;;;;;;;;5059675;28;20371;-47
2023/11/12 07:05:44;;;;;;;15.45;9.60;;;;;;;;;;5052100;28;20339;-48
2023/11/12 07:08:10;;;;;;;14.15;9.90;;;;;;;;;;5058642;28;20041;-47
2023/11/12 07:10:38;;;;;;;13.98;9.45;;;;;;;;;;5047842;28;20559;-50
2023/11/12 07:13:05;;;;;;;14.20;9.85;;;;;;;;;;5054693;28;20168;-53
2023/11/12 07:15:31;;;;;;;12.68;9.50;;;;;;;;;;5055191;28;20159;-49
2023/11/12 07:17:57;;;;;;;13.00;9.60;;;;;;;;;;5060524;28;20100;-50
2023/11/12 07:20:28;;;;;;;14.50;10.57;;;;;;;;;;5060612;28;20033;-50
2023/11/12 07:22:56;;;;;;;13.05;9.65;;;;;;;;;;5054286;28;20028;-50
2023/11/12 07:25:23;;;;;;;14.25;9.35;;;;;;;;;;5051411;28;20025;-49
2023/11/12 07:27:49;;;;;;;13.32;8.52;;;;;;;;;;5053658;28;20426;-54
2023/11/12 07:30:15;;;;;;;17.50;11.68;;;;;;;;;;5051005;28;20035;-48
2023/11/12 07:32:41;;;;;;;15.38;11.82;;;;;;;;;;5054127;28;20071;-49
2023/11/12 07:35:08;;;;;;;19.77;13.00;;;;;;;;;;5051624;28;20470;-52
2023/11/12 07:37:34;;;;;;;21.65;13.55;;;;;;;;;;5049017;28;20088;-50
2023/11/12 07:40:01;;;;;;;17.52;13.45;;;;;;;;;;5063938;28;20025;-52
2023/11/12 07:42:28;;;;;;;18.92;14.68;;;;;;;;;;5053987;28;20052;-50
2023/11/12 07:44:54;;;;;;;18.13;13.48;;;;;;;;;;5054043;28;20028;-51
2023/11/12 07:47:21;;;;;;;21.50;14.15;;;;;;;;;;5061680;28;20025;-51
2023/11/12 07:49:47;;;;;;;18.48;13.85;;;;;;;;;;5052306;28;20033;-49
2023/11/12 07:52:13;;;;;;;20.90;13.93;;;;;;;;;;5052421;28;20032;-52
2023/11/12 07:54:39;;;;;;;18.33;12.98;;;;;;;;;;5044490;28;20085;-51
2023/11/12 07:57:05;;;;;;;17.25;11.02;;;;;;;;;;5049379;28;20029;-49
2023/11/12 07:59:31;;;;;;;16.77;11.77;;;;;;;;;;5047930;28;20044;-53
2023/11/12 08:01:57;;;;;;;14.10;10.82;;;;;;;;;;5060904;28;20157;-47
2023/11/12 08:04:23;;;;;;;14.75;10.23;;;;;;;;;;5055208;28;20390;-47
2023/11/12 08:06:49;;;;;;;12.68;9.70;;;;;;;;;;5039256;28;20029;-51
2023/11/12 08:09:15;;;;;;;16.02;10.93;;;;;;;;;;5052057;28;20041;-52
2023/11/12 08:11:42;;;;;;;13.18;9.77;;;;;;;;;;5060446;28;20977;-53
2023/11/12 08:14:11;;;;;;;13.77;8.95;;;;;;;;;;5062189;28;20397;-47
2023/11/12 08:16:37;;;;;;;11.77;9.25;;;;;;;;;;5049929;28;20044;-47
2023/11/12 08:19:03;;;;;;;11.52;8.00;;;;;;;;;;5050184;28;20025;-48
2023/11/12 08:21:29;;;;;;;13.68;8.40;;;;;;;;;;5053258;28;20100;-49
2023/11/12 08:23:55;;;;;;;12.25;8.65;;;;;;;;;;5051262;28;20055;-47
2023/11/12 08:26:21;;;;;;;10.63;8.63;;;;;;;;;;5062451;28;20040;-49
2023/11/12 08:28:47;;;;;;;14.48;8.88;;;;;;;;;;5057850;28;20466;-51
2023/11/12 08:31:13;;;;;;;10.02;8.07;;;;;;;;;;5059607;28;20032;-47
2023/11/12 08:33:39;;;;;;;10.55;7.88;;;;;;;;;;5058893;28;20036;-50
2023/11/12 08:36:06;;;;;;;11.23;8.00;;;;;;;;;;5063076;28;20021;-47
2023/11/12 08:38:32;;;;;;;11.95;8.43;;;;;;;;;;5047227;28;20034;-47
2023/11/12 08:40:58;;;;;;;11.88;8.52;;;;;;;;;;5047698;28;20128;-47
2023/11/12 08:43:24;;;;;;;9.70;7.22;;;;;;;;;;5052050;28;20514;-47
2023/11/12 08:45:50;;;;;;;10.90;8.20;;;;;;;;;;5061167;28;20206;-48
2023/11/12 08:48:18;;;;;;;10.90;8.02;;;;;;;;;;5052080;28;20036;-48
2023/11/12 08:50:43;;;;;;;10.60;8.00;;;;;;;;;;5056553;28;20033;-49
2023/11/12 08:53:09;;;;;;;10.93;8.30;;;;;;;;;;5051027;28;20043;-48
2023/11/12 08:55:35;;;;;;;9.70;7.35;;;;;;;;;;5052508;28;20032;-47
2023/11/12 08:58:01;;;;;;;10.43;7.75;;;;;;;;;;5038617;28;20433;-50
2023/11/12 09:00:27;;;;;;;12.73;8.50;;;;;;;;;;5052671;28;20029;-51
2023/11/12 09:02:53;;;;;;;10.30;7.60;;;;;;;;;;5052293;28;20035;-48
2023/11/12 09:05:19;;;;;;;12.38;8.25;;;;;;;;;;5052516;28;20021;-51
2023/11/12 09:07:46;;;;;;;9.40;7.70;;;;;;;;;;5052296;28;20028;-50
2023/11/12 09:10:12;;;;;;;12.07;8.43;;;;;;;;;;5050874;28;20032;-49
2023/11/12 09:12:38;;;;;;;10.93;8.45;;;;;;;;;;5038299;28;20067;-49
2023/11/12 09:15:05;;;;;;;13.55;9.70;;;;;;;;;;5052147;28;20473;-48
2023/11/12 09:17:31;;;;;;;12.13;10.38;;;;;;;;;;5052501;28;20017;-49
2023/11/12 09:19:57;;;;;;;14.05;10.30;;;;;;;;;;5052323;28;20331;-47
2023/11/12 09:22:24;;;;;;;14.20;10.15;;;;;;;;;;5051995;28;20025;-48
2023/11/12 09:24:49;;;;;;;16.48;9.93;;;;;;;;;;5051975;28;20597;-50
2023/11/12 09:27:15;;;;;;;13.55;9.95;;;;;;;;;;5052058;28;20112;-52
2023/11/12 09:29:41;;;;;;;14.27;11.02;;;;;;;;;;5051754;28;20368;-48
2023/11/12 09:32:07;;;;;;;16.52;11.30;;;;;;;;;;5044550;28;20178;-47
2023/11/12 09:34:33;;;;;;;14.77;10.90;;;;;;;;;;5045587;28;20029;-49
2023/11/12 09:37:01;;;;;;;15.25;11.40;;;;;;;;;;5051774;28;20013;-46
2023/11/12 09:39:27;;;;;;;18.83;12.30;;;;;;;;;;5044102;28;20017;-50
2023/11/12 09:41:54;;;;;;;15.45;11.50;;;;;;;;;;5051436;28;20052;-47
2023/11/12 09:44:22;;;;;;;18.02;12.75;;;;;;;;;;5051939;28;20037;-46
2023/11/12 09:47:14;;;;;;;16.45;12.23;;;26.70;99.90;;;;;;5051578;28;20017;-46
2023/11/12 09:49:40;;;;;;;17.00;12.07;;;27.80;99.90;;;;;;5051555;28;20055;-46
2023/11/12 09:52:06;;;;;;;13.65;11.05;;;27.70;99.90;;;;;;5051287;28;20031;-48
2023/11/12 09:54:36;;;;;;;17.13;11.63;;;27.80;99.90;;;;;;5050926;28;20017;-49
2023/11/12 09:57:02;;;;;;;16.27;11.35;;;27.80;99.90;;;;;;5051834;28;20107;-52
2023/11/12 09:59:30;;;;;;;15.77;10.32;;;27.80;99.90;;;;;;5051549;28;20052;-50
2023/11/12 10:01:56;;;;;;;12.95;10.00;;;27.80;99.90;;;;;;5051596;28;20017;-53
2023/11/12 10:04:21;;;;;;;15.18;10.90;;;27.80;99.90;;;;;;5051496;28;20037;-51
2023/11/12 10:06:49;;;;;;;15.00;10.55;;;27.80;99.90;;;;;;5051529;28;20100;-49
2023/11/12 10:09:28;;;;;;;13.18;9.98;;;27.80;99.90;;;;;;5049787;28;20051;-49
2023/11/12 10:12:20;;;;;;;12.63;9.13;;;27.70;99.90;;;;;;5051553;28;20078;-51
2023/11/12 10:14:46;;;;;;;13.77;10.00;;;27.80;99.90;;;;;;5037784;28;20098;-49
2023/11/12 10:17:12;;;;;;;13.45;9.93;;;27.80;99.90;;;;;;5051395;28;20029;-51
2023/11/12 10:19:38;;;;;;;13.98;10.40;;;27.80;99.90;;;;;;5051474;28;20092;-53
2023/11/12 10:22:07;;;;;;;13.30;10.25;;;27.80;99.90;;;;;;5050060;28;20519;-51
2023/11/12 10:24:43;;;;;;;14.88;10.57;;;27.80;99.90;;;;;;5051348;28;20025;-52
2023/11/12 10:27:12;;;;;;;16.75;10.57;;;27.80;99.90;;;;;;5051572;28;20172;-49
2023/11/12 10:29:39;;;;;;;13.63;10.55;;;27.80;99.90;;;;;;5051177;28;20040;-50
2023/11/12 10:32:08;;;;;;;17.45;11.48;;;27.80;99.90;;;;;;5051188;28;20025;-50
2023/11/12 10:34:34;;;;;;;13.88;10.52;;;27.80;99.90;;;;;;5044502;28;20040;-50
2023/11/12 10:37:14;;;;;;;14.55;10.40;;;27.70;99.90;;;;;;5049848;28;20033;-53
2023/11/12 10:39:43;;;;;;;17.83;12.07;;;27.70;99.90;;;;;;5051055;28;20434;-50
2023/11/12 10:42:26;;;;;;;15.00;10.07;;;27.70;99.90;;;;;;5050994;28;20430;-50
2023/11/12 10:44:56;;;;;;;14.43;9.55;;;27.80;99.90;;;;;;5051170;28;20036;-51
2023/11/12 10:47:29;;;;;;;15.35;9.48;;;27.80;99.90;;;;;;5051122;28;20021;-51
2023/11/12 10:49:55;;;;;;;12.45;10.00;;;27.80;99.90;;;;;;5050952;28;20037;-50
2023/11/12 10:52:22;;;;;;;13.90;8.65;;;27.80;99.90;;;;;;5047615;28;20486;-50
2023/11/12 10:54:50;;;;;;;13.48;10.45;;;27.80;99.90;;;;;;5049902;28;20032;-52
2023/11/12 10:57:18;;;;;;;14.90;9.20;;;27.80;99.90;;;;;;5051519;28;20028;-53
2023/11/12 10:59:44;;;;;;;14.10;8.95;;;27.80;99.90;;;;;;5044171;28;20438;-50
2023/11/12 11:02:17;;;;;;;13.38;8.52;;;27.90;99.90;;;;;;5049897;28;20099;-54
2023/11/12 11:04:47;;;;;;;12.50;9.25;;;27.80;99.90;;;;;;5052460;28;20043;-53
2023/11/12 11:07:16;;;;;;;14.77;8.63;;;27.80;99.90;;;;;;5046961;28;20072;-52
2023/11/12 11:09:42;;;;;;;11.55;8.82;;;27.80;99.90;;;;;;5050063;28;20117;-53
2023/11/12 11:12:10;;;;;;;10.00;8.25;;;27.90;99.90;;;;;;5036819;28;20024;-51
2023/11/12 11:14:35;;;;;;;14.55;9.60;;;27.90;99.90;;;;;;5046421;28;20540;-52
2023/11/12 11:17:05;;;;;;;13.35;9.45;;;28.00;99.90;;;;;;5054363;28;20026;-51
2023/11/12 11:19:47;;;;;;;10.15;7.95;;;28.00;99.90;;;;;;5054702;28;20434;-52
2023/11/12 11:22:31;;;;;;;13.40;9.13;;;28.10;99.90;;;;;;5054491;28;20029;-49
2023/11/12 11:24:58;;;;;;;20.88;12.13;;;28.00;99.90;;;;;;5049896;28;20025;-55
2023/11/12 11:27:25;;;;;;;13.60;9.48;;;27.90;99.90;;;;;;5050227;28;20438;-53
2023/11/12 11:30:12;;;;;;;17.42;11.63;;;28.00;99.90;;;;;;5054184;28;20118;-53
2023/11/12 11:32:55;;;;;;;16.63;11.07;;;28.10;99.90;;;;;;5046660;28;20374;-50
2023/11/12 11:35:24;;;;;;;15.98;10.75;;;28.10;99.90;;;;;;5052910;28;20028;-53
2023/11/12 11:38:11;;;;;;;13.95;10.02;;;27.90;99.90;;;;;;5049437;28;20494;-51
2023/11/12 11:40:38;;;;;;;12.48;8.43;;;28.00;99.90;;;;;;5033996;28;20096;-52
2023/11/12 11:43:22;;;;;;;9.73;8.10;;;28.00;99.90;;;;;;5042558;28;20110;-49
2023/11/12 11:46:15;;;;;;;11.05;8.80;;;28.00;99.90;;;;;;5053914;28;20427;-52
2023/11/12 11:48:43;;;;;;;13.05;8.60;;;28.00;99.90;;;;;;5043813;28;20073;-52
2023/11/12 11:51:28;;;;;;;11.13;8.32;;;27.90;99.90;;;;;;5053626;28;20052;-53
2023/11/12 11:53:55;;;;;;;13.23;9.23;;;28.00;99.90;;;;;;5053825;28;20032;-50
2023/11/12 11:56:26;;;;;;;13.70;9.98;;;28.00;99.90;;;;;;5040241;28;20124;-53
2023/11/12 11:58:52;;;;;;;12.85;9.32;;;28.00;99.90;;;;;;5053846;28;20051;-53
2023/11/12 12:01:19;;;;;;;10.18;7.72;;;28.10;99.90;;;;;;5053885;28;20108;-53
2023/11/12 12:03:44;;;;;;;9.90;7.43;;;28.00;99.90;;;;;;5053563;28;20025;-50
2023/11/12 12:06:23;;;;;;;12.38;8.93;;;28.00;99.90;;;;;;5053588;28;20075;-50
2023/11/12 12:08:55;;;;;;;12.75;8.88;;;28.10;99.90;;;;;;5053529;28;20405;-49
2023/11/12 12:11:22;;;;;;;12.13;9.75;;;28.20;99.90;;;;;;5053407;28;20041;-52
2023/11/12 12:13:55;;;;;;;13.82;9.18;;;28.10;99.90;;;;;;5053440;28;20025;-51
2023/11/12 12:16:27;;;;;;;12.38;8.63;;;28.20;99.90;;;;;;5052471;28;20033;-54
2023/11/12 12:18:53;;;;;;;13.63;9.77;;;28.20;99.90;;;;;;5053530;28;20067;-50
2023/11/12 12:21:19;;;;;;;11.93;8.90;;;28.20;99.90;;;;;;5052561;28;20450;-55
2023/11/12 12:23:45;;;;;;;17.05;11.32;;;28.30;99.90;;;;;;5053292;28;20017;-54
2023/11/12 12:26:11;;;;;;;16.60;11.68;;;28.20;99.90;;;;;;5053397;28;20370;-53
2023/11/12 12:28:37;;;;;;;15.55;10.85;;;28.20;99.90;;;;;;5042466;28;20435;-52
2023/11/12 12:31:02;;;;;;;15.95;10.93;;;28.20;99.90;;;;;;5043756;28;20018;-55
2023/11/12 12:33:31;;;;;;;14.02;10.52;;;28.20;99.90;;;;;;5044072;28;20025;-53
2023/11/12 12:35:57;;;;;;;13.88;10.32;;;28.20;99.90;;;;;;5052816;28;20100;-53
2023/11/12 12:38:23;;;;;;;14.48;10.88;;;28.40;99.90;;;;;;5048408;28;20028;-55
2023/11/12 12:40:53;;;;;;;13.30;10.40;;;28.30;99.90;;;;;;5046482;28;20035;-54
2023/11/12 12:43:19;;;;;;;16.05;11.23;;;28.20;99.90;;;;;;5049488;28;20447;-53
2023/11/12 12:45:56;;;;;;;19.67;14.82;;;28.20;99.90;;;;;;5049123;28;20017;-54
2023/11/12 12:48:24;;;;;;;17.95;12.75;;;28.30;99.90;;;;;;5045338;28;20051;-53
2023/11/12 12:50:59;;;;;;;20.17;12.68;;;28.40;99.90;;;;;;5051493;28;20130;-56
2023/11/12 12:53:25;;;;;;;14.40;11.60;;;28.30;99.90;;;;;;5052682;28;20021;-54
2023/11/12 12:55:54;;;;;;;16.90;13.05;;;28.40;99.90;;;;;;5050545;28;20082;-55
2023/11/12 12:58:22;;;;;;;20.70;14.25;;;28.40;99.90;;;;;;5052587;28;20029;-53
2023/11/12 13:00:53;;;;;;;18.60;13.55;;;28.40;99.90;;;;;;5052484;28;20494;-54
2023/11/12 13:03:30;;;;;;;19.17;13.80;;;28.40;99.90;;;;;;5052474;28;20028;-52
2023/11/12 13:06:26;;;;;;;19.02;13.52;;;28.30;99.90;;;;;;5049629;28;20700;-55
2023/11/12 13:08:53;;;;;;;18.63;13.93;;;28.30;99.90;;;;;;5047168;28;20084;-53
2023/11/12 13:11:20;;;;;;;18.63;14.45;;;28.20;99.90;;;;;;5052183;28;20020;-51
2023/11/12 13:13:46;;;;;;;20.55;14.07;;;28.20;99.90;;;;;;5046960;28;20048;-50
2023/11/12 13:16:12;;;;;;;17.52;12.32;;;28.20;99.90;;;;;;5052289;28;20064;-54
2023/11/12 13:18:40;;;;;;;20.08;13.90;;;28.20;99.90;;;;;;5052341;28;20076;-53
2023/11/12 13:21:06;;;;;;;16.52;13.13;;;28.20;99.90;;;;;;5050779;28;20124;-53
2023/11/12 13:23:36;;;;;;;17.75;13.80;;;28.20;99.90;;;;;;5052213;28;20028;-53
2023/11/12 13:26:02;;;;;;;19.75;13.52;;;28.10;99.90;;;;;;5052062;28;20024;-51
2023/11/12 13:28:28;;;;;;;17.55;13.55;;;28.10;99.90;;;;;;5051927;28;20029;-55
2023/11/12 13:30:54;;;;;;;20.63;14.65;;;28.10;99.90;;;;;;5052063;28;20025;-55
2023/11/12 13:33:20;;;;;;;18.88;14.35;;;28.20;99.90;;;;;;5051820;28;20064;-55